createdAt,value
2023-04-09T00:01:08.749Z,8.57
2023-04-09T00:03:35.196Z,8.57
2023-04-09T00:06:01.542Z,9.09
2023-04-09T00:08:27.896Z,9.25
2023-04-09T00:10:54.178Z,8.68
2023-04-09T00:13:28.341Z,8.74
2023-04-09T00:16:02.260Z,9.00
2023-04-09T00:18:28.523Z,9.28
2023-04-09T00:20:54.821Z,9.14
2023-04-09T00:23:21.073Z,8.99
2023-04-09T00:25:47.321Z,9.59
2023-04-09T00:28:13.592Z,9.04
2023-04-09T00:30:39.853Z,10.00
2023-04-09T00:33:06.173Z,9.98
2023-04-09T00:35:32.481Z,9.66
2023-04-09T00:37:58.752Z,9.33
2023-04-09T00:40:24.995Z,9.51
2023-04-09T00:42:51.284Z,9.43
2023-04-09T00:45:17.557Z,9.53
2023-04-09T00:47:43.884Z,9.83
2023-04-09T00:50:10.180Z,9.89
2023-04-09T00:52:36.462Z,9.97
2023-04-09T00:55:02.777Z,10.26
2023-04-09T00:57:29.049Z,10.37
2023-04-09T00:59:55.337Z,10.47
2023-04-09T01:02:21.692Z,10.30
2023-04-09T01:04:47.965Z,10.66
2023-04-09T01:07:14.245Z,10.66
2023-04-09T01:09:40.524Z,10.83
2023-04-09T01:12:06.791Z,11.35
2023-04-09T01:14:33.092Z,11.55
2023-04-09T01:16:59.412Z,11.39
2023-04-09T01:19:25.684Z,11.76
2023-04-09T01:21:51.957Z,11.64
2023-04-09T01:24:18.256Z,11.60
2023-04-09T01:26:44.543Z,11.68
2023-04-09T01:29:10.816Z,12.40
2023-04-09T01:31:37.083Z,12.70
2023-04-09T01:34:03.337Z,12.59
2023-04-09T01:36:29.605Z,13.01
2023-04-09T01:38:55.909Z,12.96
2023-04-09T01:41:22.206Z,12.97
2023-04-09T01:43:48.471Z,12.65
2023-04-09T01:46:14.827Z,12.69
2023-04-09T01:48:41.221Z,12.68
2023-04-09T01:51:07.479Z,13.14
2023-04-09T01:53:33.742Z,13.78
2023-04-09T01:56:00.019Z,12.95
2023-04-09T01:58:26.268Z,12.98
2023-04-09T02:00:52.528Z,13.77
2023-04-09T02:03:18.953Z,13.38
2023-04-09T02:05:45.225Z,13.44
2023-04-09T02:08:11.487Z,14.08
2023-04-09T02:10:37.753Z,13.71
2023-04-09T02:13:04.041Z,14.31
2023-04-09T02:15:30.362Z,13.93
2023-04-09T02:17:56.699Z,13.36
2023-04-09T02:20:22.995Z,14.16
2023-04-09T02:22:49.265Z,14.64
2023-04-09T02:25:15.554Z,14.72
2023-04-09T02:27:41.817Z,14.54
2023-04-09T02:30:08.097Z,16.08
2023-04-09T02:32:34.384Z,15.61
2023-04-09T02:35:00.753Z,16.20
2023-04-09T02:37:27.025Z,16.15
2023-04-09T02:39:53.308Z,16.43
2023-04-09T02:42:19.597Z,26.43
2023-04-09T02:44:45.871Z,25.29
2023-04-09T02:47:12.142Z,19.05
2023-04-09T02:49:38.423Z,17.78
2023-04-09T02:52:04.689Z,18.09
2023-04-09T02:54:30.967Z,18.86
2023-04-09T02:56:57.248Z,18.41
2023-04-09T02:59:23.498Z,19.83
2023-04-09T03:01:49.850Z,19.68
2023-04-09T03:04:16.309Z,19.67
2023-04-09T03:06:42.587Z,19.55
2023-04-09T03:09:08.888Z,20.23
2023-04-09T03:11:35.146Z,20.42
2023-04-09T03:14:01.399Z,21.57
2023-04-09T03:16:27.685Z,21.06
2023-04-09T03:18:54.189Z,21.16
2023-04-09T03:21:20.695Z,21.23
2023-04-09T03:23:46.998Z,22.83
2023-04-09T03:26:13.306Z,21.90
2023-04-09T03:28:39.587Z,21.64
2023-04-09T03:31:05.850Z,22.31
2023-04-09T03:33:32.134Z,21.96
2023-04-09T03:35:58.423Z,22.67
2023-04-09T03:38:24.699Z,22.72
2023-04-09T03:40:50.970Z,22.02
2023-04-09T03:43:17.228Z,22.38
2023-04-09T03:45:43.500Z,22.39
2023-04-09T03:48:09.785Z,21.68
2023-04-09T03:50:36.078Z,22.78
2023-04-09T03:53:02.360Z,23.00
2023-04-09T03:55:28.622Z,22.96
2023-04-09T03:57:54.877Z,22.59
2023-04-09T04:00:21.174Z,22.94
2023-04-09T04:02:47.622Z,22.95
2023-04-09T04:05:14.033Z,22.83
2023-04-09T04:07:40.293Z,22.55
2023-04-09T04:10:06.600Z,21.98
2023-04-09T04:12:32.897Z,22.38
2023-04-09T04:14:59.181Z,23.02
2023-04-09T04:17:25.469Z,23.82
2023-04-09T04:19:51.756Z,23.20
2023-04-09T04:22:18.039Z,23.48
2023-04-09T04:24:44.303Z,23.83
2023-04-09T04:27:10.665Z,23.42
2023-04-09T04:29:36.937Z,24.20
2023-04-09T04:32:03.283Z,23.48
2023-04-09T04:34:29.591Z,23.15
2023-04-09T04:36:55.848Z,23.13
2023-04-09T04:39:22.117Z,23.39
2023-04-09T04:41:48.398Z,23.30
2023-04-09T04:44:14.697Z,24.18
2023-04-09T04:46:40.961Z,24.33
2023-04-09T04:49:07.259Z,25.02
2023-04-09T04:51:33.570Z,23.82
2023-04-09T04:53:59.840Z,23.59
2023-04-09T04:56:26.113Z,23.54
2023-04-09T04:58:52.597Z,23.11
2023-04-09T05:01:19.145Z,22.86
2023-04-09T05:03:45.606Z,22.66
2023-04-09T05:06:11.970Z,22.48
2023-04-09T05:08:38.243Z,23.01
2023-04-09T05:11:04.535Z,24.10
2023-04-09T05:13:30.831Z,23.58
2023-04-09T05:15:57.116Z,23.81
2023-04-09T05:18:23.374Z,25.04
2023-04-09T05:20:49.645Z,25.70
2023-04-09T05:23:15.909Z,25.73
2023-04-09T05:25:42.203Z,26.38
2023-04-09T05:28:08.481Z,26.29
2023-04-09T05:30:34.813Z,27.72
2023-04-09T05:33:01.091Z,27.49
2023-04-09T05:35:27.355Z,27.83
2023-04-09T05:37:53.616Z,29.09
2023-04-09T05:40:19.915Z,28.25
2023-04-09T05:42:46.217Z,27.15
2023-04-09T05:45:12.467Z,28.13
2023-04-09T05:47:38.775Z,26.99
2023-04-09T05:50:05.052Z,26.07
2023-04-09T05:52:31.315Z,27.41
2023-04-09T05:54:57.600Z,26.31
2023-04-09T05:57:23.860Z,28.93
2023-04-09T05:59:50.156Z,27.30
2023-04-09T06:02:16.520Z,27.91
2023-04-09T06:04:42.928Z,27.19
2023-04-09T06:07:09.255Z,26.36
2023-04-09T06:09:35.509Z,27.49
2023-04-09T06:12:01.809Z,26.79
2023-04-09T06:14:28.077Z,26.35
2023-04-09T06:16:54.400Z,27.81
2023-04-09T06:19:20.699Z,26.40
2023-04-09T06:21:46.962Z,26.52
2023-04-09T06:24:13.238Z,26.23
2023-04-09T06:26:39.511Z,26.28
2023-04-09T06:29:05.807Z,26.31
2023-04-09T06:31:32.123Z,25.61
2023-04-09T06:33:58.470Z,26.14
2023-04-09T06:36:24.732Z,27.85
2023-04-09T06:38:51.046Z,26.60
2023-04-09T06:41:17.337Z,27.36
2023-04-09T06:43:43.716Z,26.50
2023-04-09T06:46:10.107Z,42.21
2023-04-09T06:48:36.380Z,30.22
2023-04-09T06:51:02.674Z,27.41
2023-04-09T06:53:29.001Z,26.65
2023-04-09T06:55:57.022Z,27.39
2023-04-09T06:58:23.484Z,25.43
2023-04-09T07:00:49.850Z,25.29
2023-04-09T07:03:16.255Z,24.67
2023-04-09T07:05:42.713Z,24.33
2023-04-09T07:08:08.985Z,23.11
2023-04-09T07:10:35.278Z,24.19
2023-04-09T07:13:01.548Z,26.16
2023-04-09T07:15:27.847Z,24.27
2023-04-09T07:17:54.173Z,24.02
2023-04-09T07:20:20.713Z,23.63
2023-04-09T07:22:47.027Z,23.96
2023-04-09T07:25:13.313Z,23.51
2023-04-09T07:27:39.620Z,24.01
2023-04-09T07:30:05.896Z,25.33
2023-04-09T07:32:32.284Z,25.89
2023-04-09T07:34:58.614Z,26.07
2023-04-09T07:37:24.882Z,25.77
2023-04-09T07:39:51.253Z,25.63
2023-04-09T07:42:17.545Z,26.01
2023-04-09T07:44:43.840Z,24.79
2023-04-09T07:47:10.263Z,24.90
2023-04-09T07:49:36.543Z,24.74
2023-04-09T07:52:02.831Z,25.05
2023-04-09T07:54:29.124Z,23.88
2023-04-09T07:56:55.436Z,23.01
2023-04-09T07:59:21.773Z,24.33
2023-04-09T08:01:48.116Z,24.55
2023-04-09T08:04:14.574Z,24.18
2023-04-09T08:06:40.951Z,23.95
2023-04-09T08:09:07.271Z,23.30
2023-04-09T08:11:33.737Z,24.12
2023-04-09T08:14:00.014Z,22.78
2023-04-09T08:16:26.386Z,23.25
2023-04-09T08:18:53.037Z,22.30
2023-04-09T08:21:19.494Z,23.45
2023-04-09T08:23:45.787Z,23.14
2023-04-09T08:26:12.167Z,22.13
2023-04-09T08:28:38.436Z,22.78
2023-04-09T08:31:04.763Z,22.45
2023-04-09T08:33:31.067Z,23.24
2023-04-09T08:35:57.356Z,22.64
2023-04-09T08:38:23.623Z,22.78
2023-04-09T08:40:49.894Z,22.28
2023-04-09T08:43:16.168Z,22.13
2023-04-09T08:45:42.513Z,22.26
2023-04-09T08:48:08.988Z,22.93
2023-04-09T08:50:35.335Z,20.24
2023-04-09T08:53:01.630Z,20.12
2023-04-09T08:55:27.962Z,21.33
2023-04-09T08:57:54.276Z,18.69
2023-04-09T09:00:20.605Z,17.42
2023-04-09T09:02:47.082Z,17.03
2023-04-09T09:05:13.427Z,17.95
2023-04-09T09:07:39.717Z,17.70
2023-04-09T09:10:05.993Z,18.78
2023-04-09T09:12:33.407Z,17.51
2023-04-09T09:14:59.676Z,17.15
2023-04-09T09:17:25.979Z,18.09
2023-04-09T09:19:52.364Z,17.78
2023-04-09T09:22:18.645Z,17.76
2023-04-09T09:24:44.944Z,18.35
2023-04-09T09:27:11.396Z,17.95
2023-04-09T09:29:37.669Z,17.96
2023-04-09T09:32:03.969Z,17.59
2023-04-09T09:34:30.443Z,17.51
2023-04-09T09:36:56.751Z,17.64
2023-04-09T09:39:23.076Z,18.34
2023-04-09T09:41:49.350Z,18.26
2023-04-09T09:44:15.618Z,17.94
2023-04-09T09:46:41.922Z,18.11
2023-04-09T09:49:08.237Z,18.10
2023-04-09T09:51:34.506Z,18.77
2023-04-09T09:54:00.761Z,18.35
2023-04-09T09:56:27.059Z,18.03
2023-04-09T09:58:53.586Z,18.15
2023-04-09T10:01:20.082Z,17.85
2023-04-09T10:03:46.406Z,18.17
2023-04-09T10:06:12.704Z,18.19
2023-04-09T10:08:38.989Z,17.90
2023-04-09T10:11:05.372Z,17.96
2023-04-09T10:13:31.646Z,17.91
2023-04-09T10:15:58.019Z,18.44
2023-04-09T10:18:24.425Z,20.10
2023-04-09T10:20:50.735Z,18.75
2023-04-09T10:23:17.022Z,18.69
2023-04-09T10:25:43.310Z,17.62
2023-04-09T10:28:09.587Z,18.18
2023-04-09T10:30:35.853Z,16.52
2023-04-09T10:33:02.214Z,16.04
2023-04-09T10:35:28.542Z,15.39
2023-04-09T10:37:54.847Z,15.94
2023-04-09T10:40:21.142Z,16.76
2023-04-09T10:42:47.456Z,16.82
2023-04-09T10:45:13.785Z,17.40
2023-04-09T10:47:40.123Z,16.96
2023-04-09T10:50:06.448Z,17.26
2023-04-09T10:52:32.733Z,17.16
2023-04-09T10:54:59.011Z,16.00
2023-04-09T10:57:25.286Z,15.97
2023-04-09T10:59:51.587Z,15.89
2023-04-09T11:02:17.896Z,15.64
2023-04-09T11:04:44.233Z,14.64
2023-04-09T11:07:10.541Z,14.83
2023-04-09T11:09:36.815Z,14.64
2023-04-09T11:12:03.099Z,15.28
2023-04-09T11:14:29.381Z,15.03
2023-04-09T11:16:55.662Z,14.93
2023-04-09T11:19:21.936Z,14.38
2023-04-09T11:21:48.223Z,14.63
2023-04-09T11:24:14.472Z,14.86
2023-04-09T11:26:40.733Z,14.22
2023-04-09T11:29:07.016Z,14.81
2023-04-09T11:31:33.323Z,14.62
2023-04-09T11:33:59.636Z,15.20
2023-04-09T11:36:25.910Z,14.97
2023-04-09T11:38:52.480Z,14.86
2023-04-09T11:41:18.984Z,15.47
2023-04-09T11:43:45.262Z,15.78
2023-04-09T11:46:11.565Z,15.56
2023-04-09T11:48:37.860Z,15.91
2023-04-09T11:51:04.135Z,16.64
2023-04-09T11:53:30.401Z,16.04
2023-04-09T11:55:56.685Z,15.96
2023-04-09T11:58:22.946Z,16.99
2023-04-09T12:00:49.210Z,16.94
2023-04-09T12:03:15.778Z,16.77
2023-04-09T12:05:44.085Z,17.11
2023-04-09T12:08:13.477Z,16.65
2023-04-09T12:10:39.805Z,16.30
2023-04-09T12:13:06.122Z,16.89
2023-04-09T12:15:32.455Z,16.76
2023-04-09T12:17:58.777Z,17.39
2023-04-09T12:20:25.070Z,16.65
2023-04-09T12:22:51.366Z,17.20
2023-04-09T12:25:17.627Z,17.17
2023-04-09T12:27:43.904Z,17.11
2023-04-09T12:30:10.192Z,17.42
2023-04-09T12:32:36.481Z,17.03
2023-04-09T12:35:02.762Z,16.65
2023-04-09T12:37:29.035Z,17.38
2023-04-09T12:39:55.301Z,17.35
2023-04-09T12:42:21.602Z,17.37
2023-04-09T12:44:47.866Z,17.98
2023-04-09T12:47:14.149Z,17.79
2023-04-09T12:49:42.316Z,16.71
2023-04-09T12:52:08.689Z,16.87
2023-04-09T12:54:34.989Z,16.74
2023-04-09T12:57:01.254Z,16.23
2023-04-09T12:59:27.540Z,16.48
2023-04-09T13:01:53.874Z,17.13
2023-04-09T13:04:20.323Z,16.10
2023-04-09T13:06:46.624Z,16.51
2023-04-09T13:09:12.894Z,16.21
2023-04-09T13:11:39.151Z,15.73
2023-04-09T13:14:05.441Z,15.86
2023-04-09T13:16:31.778Z,15.39
2023-04-09T13:18:58.073Z,15.22
2023-04-09T13:21:24.333Z,16.15
2023-04-09T13:23:50.586Z,15.26
2023-04-09T13:26:16.888Z,14.88
2023-04-09T13:28:43.159Z,15.11
2023-04-09T13:31:09.462Z,14.67
2023-04-09T13:33:35.793Z,14.22
2023-04-09T13:36:02.143Z,14.76
2023-04-09T13:38:28.462Z,15.11
2023-04-09T13:40:54.780Z,14.89
2023-04-09T13:43:21.077Z,13.99
2023-04-09T13:45:47.408Z,13.84
2023-04-09T13:48:15.311Z,13.71
2023-04-09T13:50:41.870Z,12.80
2023-04-09T13:53:08.197Z,13.12
2023-04-09T13:55:34.487Z,13.34
2023-04-09T13:58:00.763Z,13.64
2023-04-09T14:00:27.018Z,13.14
2023-04-09T14:02:53.490Z,13.88
2023-04-09T14:05:19.857Z,13.23
2023-04-09T14:07:46.105Z,12.78
2023-04-09T14:10:12.388Z,12.69
2023-04-09T14:12:38.663Z,12.68
2023-04-09T14:15:04.947Z,12.02
2023-04-09T14:17:31.251Z,11.98
2023-04-09T14:19:57.523Z,11.15
2023-04-09T14:22:23.789Z,11.59
2023-04-09T14:24:50.085Z,11.44
2023-04-09T14:27:16.393Z,11.63
2023-04-09T14:29:42.669Z,11.48
2023-04-09T14:32:08.924Z,10.86
2023-04-09T14:34:35.225Z,11.36
2023-04-09T14:37:01.479Z,11.29
2023-04-09T14:39:27.740Z,10.97
2023-04-09T14:41:54.040Z,11.18
2023-04-09T14:44:20.344Z,11.94
2023-04-09T14:46:46.636Z,11.60
2023-04-09T14:49:12.941Z,11.51
2023-04-09T14:51:39.208Z,10.88
2023-04-09T14:54:05.507Z,11.22
2023-04-09T14:56:31.802Z,10.86
2023-04-09T14:58:58.149Z,10.90
2023-04-09T15:01:24.472Z,11.09
2023-04-09T15:03:50.957Z,10.63
2023-04-09T15:06:17.332Z,11.09
2023-04-09T15:08:43.613Z,9.76
2023-04-09T15:11:09.874Z,8.55
2023-04-09T15:13:36.161Z,8.90
2023-04-09T15:16:02.457Z,9.44
2023-04-09T15:18:28.835Z,9.63
2023-04-09T15:20:55.177Z,9.41
2023-04-09T15:23:21.465Z,8.44
2023-04-09T15:25:47.729Z,7.32
2023-04-09T15:28:14.056Z,7.31
2023-04-09T15:30:40.317Z,6.01
2023-04-09T15:33:06.697Z,6.97
2023-04-09T15:35:33.048Z,7.31
2023-04-09T15:37:59.347Z,7.11
2023-04-09T15:40:25.617Z,5.86
2023-04-09T15:42:51.915Z,5.22
2023-04-09T15:45:18.198Z,5.08
2023-04-09T15:47:44.498Z,4.82
2023-04-09T15:50:10.866Z,5.31
2023-04-09T15:52:37.140Z,5.20
2023-04-09T15:55:03.436Z,4.75
2023-04-09T15:57:29.765Z,5.01
2023-04-09T15:59:56.065Z,5.00
2023-04-09T16:02:23.508Z,4.95
2023-04-09T16:04:51.693Z,4.86
2023-04-09T16:07:18.095Z,3.95
2023-04-09T16:09:44.463Z,3.88
2023-04-09T16:12:10.713Z,3.61
2023-04-09T16:14:36.971Z,3.50
2023-04-09T16:17:03.343Z,3.02
2023-04-09T16:19:29.672Z,2.85
2023-04-09T16:21:56.003Z,2.90
2023-04-09T16:24:22.529Z,3.06
2023-04-09T16:26:48.798Z,3.19
2023-04-09T16:29:15.068Z,3.30
2023-04-09T16:31:41.371Z,3.45
2023-04-09T16:34:07.678Z,3.86
2023-04-09T16:36:33.969Z,3.35
2023-04-09T16:39:00.266Z,3.66
2023-04-09T16:41:26.551Z,3.65
2023-04-09T16:43:52.826Z,3.69
2023-04-09T16:46:19.169Z,3.55
2023-04-09T16:48:45.493Z,3.73
2023-04-09T16:51:11.762Z,3.71
2023-04-09T16:53:38.991Z,3.90
2023-04-09T16:56:05.338Z,3.83
2023-04-09T16:58:31.630Z,4.10
2023-04-09T17:00:57.915Z,3.68
2023-04-09T17:03:24.238Z,3.67
2023-04-09T17:05:50.554Z,3.64
2023-04-09T17:08:16.847Z,3.52
2023-04-09T17:10:43.124Z,3.50
2023-04-09T17:13:09.373Z,3.75
2023-04-09T17:15:35.993Z,3.46
2023-04-09T17:18:02.465Z,3.42
2023-04-09T17:20:28.841Z,3.04
2023-04-09T17:22:55.120Z,3.46
2023-04-09T17:25:21.367Z,3.57
2023-04-09T17:27:47.638Z,3.53
2023-04-09T17:30:13.901Z,3.50
2023-04-09T17:32:40.206Z,3.54
2023-04-09T17:35:06.492Z,3.29
2023-04-09T17:37:32.784Z,3.68
2023-04-09T17:39:59.054Z,3.51
2023-04-09T17:42:25.318Z,3.80
2023-04-09T17:44:51.602Z,3.64
2023-04-09T17:47:17.869Z,3.71
2023-04-09T17:49:44.202Z,3.75
2023-04-09T17:52:10.511Z,4.19
2023-04-09T17:54:36.786Z,5.23
2023-04-09T17:57:03.077Z,3.70
2023-04-09T17:59:29.554Z,3.91
2023-04-09T18:01:55.929Z,3.88
2023-04-09T18:04:22.533Z,4.31
2023-04-09T18:06:48.974Z,4.39
2023-04-09T18:09:15.244Z,4.39
2023-04-09T18:11:41.619Z,4.58
2023-04-09T18:14:07.946Z,4.28
2023-04-09T18:16:34.237Z,4.97
2023-04-09T18:19:00.606Z,4.55
2023-04-09T18:21:26.962Z,4.84
2023-04-09T18:23:53.217Z,4.88
2023-04-09T18:26:19.542Z,4.78
2023-04-09T18:28:45.845Z,4.99
2023-04-09T18:31:12.205Z,6.00
2023-04-09T18:33:38.596Z,5.95
2023-04-09T18:36:04.964Z,5.64
2023-04-09T18:38:31.279Z,6.02
2023-04-09T18:40:57.603Z,6.08
2023-04-09T18:43:23.849Z,6.31
2023-04-09T18:45:50.103Z,5.96
2023-04-09T18:48:16.361Z,6.38
2023-04-09T18:50:42.632Z,6.35
2023-04-09T18:53:08.921Z,6.83
2023-04-09T18:55:35.189Z,6.72
2023-04-09T18:58:01.551Z,6.76
2023-04-09T19:00:27.803Z,6.82
2023-04-09T19:02:54.286Z,6.92
2023-04-09T19:05:20.874Z,7.06
2023-04-09T19:07:47.161Z,7.47
2023-04-09T19:10:13.436Z,7.12
2023-04-09T19:12:39.711Z,7.19
2023-04-09T19:15:05.988Z,7.64
2023-04-09T19:17:32.357Z,7.36
2023-04-09T19:19:58.655Z,7.34
2023-04-09T19:22:24.987Z,7.25
2023-04-09T19:24:51.272Z,7.77
2023-04-09T19:27:17.525Z,7.55
2023-04-09T19:29:43.790Z,7.58
2023-04-09T19:32:10.066Z,7.33
2023-04-09T19:34:36.342Z,7.65
2023-04-09T19:37:02.631Z,7.55
2023-04-09T19:39:28.946Z,7.57
2023-04-09T19:41:55.350Z,7.63
2023-04-09T19:44:21.645Z,7.21
2023-04-09T19:46:47.951Z,7.55
2023-04-09T19:49:14.241Z,7.81
2023-04-09T19:51:40.553Z,7.60
2023-04-09T19:54:06.880Z,7.31
2023-04-09T19:56:33.197Z,7.16
2023-04-09T19:58:59.485Z,7.43
2023-04-09T20:01:25.810Z,7.33
2023-04-09T20:03:52.261Z,7.81
2023-04-09T20:06:18.602Z,7.76
2023-04-09T20:08:44.858Z,7.05
2023-04-09T20:11:11.156Z,7.48
2023-04-09T20:13:37.416Z,7.00
2023-04-09T20:16:03.763Z,6.95
2023-04-09T20:18:30.038Z,7.22
2023-04-09T20:20:56.306Z,7.78
2023-04-09T20:23:22.603Z,7.88
2023-04-09T20:25:48.858Z,7.92
2023-04-09T20:28:15.250Z,7.73
2023-04-09T20:30:41.573Z,7.65
2023-04-09T20:33:07.871Z,7.66
2023-04-09T20:35:34.251Z,7.51
2023-04-09T20:38:00.609Z,7.71
2023-04-09T20:40:26.896Z,8.23
2023-04-09T20:42:53.164Z,8.35
2023-04-09T20:45:19.518Z,8.27
2023-04-09T20:47:45.832Z,7.92
2023-04-09T20:50:12.291Z,8.26
2023-04-09T20:52:38.705Z,8.39
2023-04-09T20:55:05.012Z,7.98
2023-04-09T20:57:31.377Z,8.37
2023-04-09T20:59:57.728Z,8.50
2023-04-09T21:02:24.140Z,8.65
2023-04-09T21:04:50.547Z,8.83
2023-04-09T21:07:16.856Z,8.69
2023-04-09T21:09:43.151Z,8.55
2023-04-09T21:12:09.416Z,8.79
2023-04-09T21:14:35.681Z,8.36
2023-04-09T21:17:02.002Z,8.80
2023-04-09T21:19:28.340Z,8.79
2023-04-09T21:21:54.664Z,8.74
2023-04-09T21:24:21.043Z,9.41
2023-04-09T21:26:51.529Z,9.38
2023-04-09T21:29:18.658Z,9.01
2023-04-09T21:31:44.939Z,8.77
2023-04-09T21:34:11.236Z,8.74
2023-04-09T21:36:37.503Z,9.05
2023-04-09T21:39:03.813Z,9.21
2023-04-09T21:41:30.108Z,9.39
2023-04-09T21:43:56.410Z,8.69
2023-04-09T21:46:22.793Z,9.27
2023-04-09T21:48:49.167Z,9.21
2023-04-09T21:51:15.559Z,8.97
2023-04-09T21:53:41.936Z,9.09
2023-04-09T21:56:08.224Z,9.18
2023-04-09T21:58:34.486Z,9.33
2023-04-09T22:01:00.806Z,9.21
2023-04-09T22:03:27.311Z,9.40
2023-04-09T22:05:53.681Z,9.08
2023-04-09T22:08:19.993Z,9.23
2023-04-09T22:10:46.263Z,8.53
2023-04-09T22:13:12.538Z,8.70
2023-04-09T22:15:38.904Z,8.82
2023-04-09T22:18:05.329Z,9.01
2023-04-09T22:20:31.609Z,8.80
2023-04-09T22:22:57.862Z,8.73
2023-04-09T22:25:24.143Z,8.29
2023-04-09T22:27:50.548Z,8.81
2023-04-09T22:30:16.820Z,8.94
2023-04-09T22:32:43.162Z,9.10
2023-04-09T22:35:09.430Z,9.71
2023-04-09T22:37:35.696Z,8.90
2023-04-09T22:40:02.012Z,9.26
2023-04-09T22:42:28.385Z,9.76
2023-04-09T22:44:54.750Z,9.44
2023-04-09T22:47:21.039Z,8.58
2023-04-09T22:49:47.307Z,8.68
2023-04-09T22:52:13.557Z,8.89
2023-04-09T22:54:39.818Z,9.23
2023-04-09T22:57:06.092Z,8.96
2023-04-09T22:59:40.462Z,9.39
2023-04-09T23:02:07.213Z,9.46
2023-04-09T23:04:33.771Z,9.28
2023-04-09T23:07:00.161Z,8.92
2023-04-09T23:09:26.436Z,8.77
2023-04-09T23:11:52.706Z,8.59
2023-04-09T23:14:19.013Z,8.67
2023-04-09T23:16:45.257Z,8.83
2023-04-09T23:19:11.539Z,8.75
2023-04-09T23:21:37.809Z,8.39
2023-04-09T23:24:04.066Z,8.58
2023-04-09T23:26:30.347Z,9.06
2023-04-09T23:28:56.603Z,8.44
2023-04-09T23:31:22.998Z,8.99
2023-04-09T23:33:49.309Z,8.41
2023-04-09T23:36:15.569Z,8.91
2023-04-09T23:38:41.840Z,8.91
2023-04-09T23:41:08.103Z,8.49
2023-04-09T23:43:34.369Z,8.54
2023-04-09T23:46:00.643Z,8.39
2023-04-09T23:48:26.940Z,9.37
2023-04-09T23:50:53.313Z,8.79
2023-04-09T23:53:19.625Z,8.54
2023-04-09T23:55:45.888Z,8.94
2023-04-09T23:58:12.182Z,8.89
